Time;durP1;ratioP1;P1;durP2;ratioP2;P2;SDS_P1;SDS_P2;PMS_P1;PMS_P2;Temp;Humidity;BMP_temperature;BMP_pressure;BME280_temperature;BME280_humidity;BME280_pressure;Samples;Min_cycle;Max_cycle;Signal;HPM_P1;HPM_P2
2022/05/22 00:01:13;;;;;;;1.50;1.20;;;26.30;62.30;;;;;;5076422;28;20433;-90
2022/05/22 00:03:40;;;;;;;1.40;1.20;;;26.30;62.30;;;;;;5076696;28;20452;-82
2022/05/22 00:06:07;;;;;;;1.17;1.00;;;26.30;62.30;;;;;;5076468;28;20433;-93
2022/05/22 00:08:34;;;;;;;1.20;1.10;;;26.30;62.30;;;;;;5076813;28;20441;-80
2022/05/22 00:11:02;;;;;;;1.30;1.00;;;26.30;62.30;;;;;;5078752;28;20463;-92
2022/05/22 00:13:29;;;;;;;1.03;0.90;;;26.30;62.30;;;;;;5076086;28;20480;-91
2022/05/22 00:18:40;;;;;;;1.20;0.97;;;26.30;62.30;;;;;;5076373;28;20450;-92
2022/05/22 00:21:07;;;;;;;1.27;1.17;;;26.30;62.30;;;;;;5076451;28;20792;-81
2022/05/22 00:23:34;;;;;;;1.10;0.90;;;26.30;62.30;;;;;;5076213;28;20778;-85
2022/05/22 00:26:02;;;;;;;1.30;1.10;;;26.30;62.30;;;;;;5076041;28;20447;-93
2022/05/22 00:28:29;;;;;;;1.30;1.20;;;26.30;62.30;;;;;;5076200;28;20437;-91
2022/05/22 00:30:55;;;;;;;1.20;1.10;;;26.30;62.30;;;;;;5076319;28;20449;-92
2022/05/22 00:33:22;;;;;;;1.20;1.00;;;26.30;62.30;;;;;;5075603;28;20491;-80
2022/05/22 00:35:49;;;;;;;1.17;1.07;;;26.30;62.30;;;;;;5075619;28;20481;-92
2022/05/22 00:38:16;;;;;;;1.37;1.13;;;26.30;62.30;;;;;;5076094;28;20437;-80
2022/05/22 00:40:42;;;;;;;1.50;1.40;;;26.30;62.30;;;;;;5075701;28;20461;-91
2022/05/22 00:46:06;;;;;;;1.27;1.03;;;26.30;62.20;;;;;;5112454;27;20546;-86
2022/05/22 00:48:33;;;;;;;1.40;1.00;;;26.30;62.30;;;;;;5111609;28;20949;-92
2022/05/22 00:51:05;;;;;;;1.10;1.00;;;26.30;62.30;;;;;;5111935;28;20427;-92
2022/05/22 00:53:34;;;;;;;1.73;1.63;;;26.30;62.20;;;;;;5112213;28;20438;-92
2022/05/22 00:56:03;;;;;;;1.33;1.00;;;26.30;62.30;;;;;;5111959;28;20435;-92
2022/05/22 00:58:31;;;;;;;1.50;1.20;;;26.30;62.30;;;;;;5111806;28;20431;-92
2022/05/22 01:00:58;;;;;;;1.20;1.10;;;26.30;62.20;;;;;;5111964;28;20948;-81
2022/05/22 01:03:28;;;;;;;1.20;0.90;;;26.30;62.20;;;;;;5111974;28;20439;-92
2022/05/22 01:05:56;;;;;;;1.10;1.00;;;26.30;62.20;;;;;;5111511;28;20489;-90
2022/05/22 01:08:23;;;;;;;1.40;1.23;;;26.30;62.20;;;;;;5111605;28;21031;-81
2022/05/22 01:10:54;;;;;;;1.10;1.00;;;26.20;62.10;;;;;;5111507;28;20459;-91
2022/05/22 01:13:26;;;;;;;1.10;1.00;;;26.20;62.10;;;;;;5111869;28;20439;-81
2022/05/22 01:15:53;;;;;;;1.30;1.10;;;26.20;62.10;;;;;;5111799;28;20443;-92
2022/05/22 01:18:20;;;;;;;1.10;0.90;;;26.40;62.30;;;;;;5111391;28;20435;-92
2022/05/22 01:20:50;;;;;;;1.30;1.10;;;26.30;62.20;;;;;;5111333;28;20442;-84
2022/05/22 01:23:19;;;;;;;1.30;1.10;;;26.30;62.20;;;;;;5111300;28;20538;-80
2022/05/22 01:25:46;;;;;;;1.27;1.17;;;26.40;62.30;;;;;;5111182;28;20989;-91
2022/05/22 01:28:17;;;;;;;1.20;1.10;;;26.20;62.10;;;;;;5111187;28;20438;-92
2022/05/22 01:30:44;;;;;;;1.10;1.00;;;26.20;62.10;;;;;;5111389;28;20431;-90
2022/05/22 01:33:11;;;;;;;1.20;1.10;;;26.20;62.10;;;;;;5111613;28;20431;-82
2022/05/22 01:35:38;;;;;;;1.10;0.90;;;26.20;62.00;;;;;;5115569;28;20408;-78
2022/05/22 01:38:06;;;;;;;1.27;1.17;;;26.20;62.00;;;;;;5127986;28;20446;-80
2022/05/22 01:40:34;;;;;;;1.00;0.90;;;26.20;62.10;;;;;;5121163;28;20463;-80
2022/05/22 01:43:01;;;;;;;1.30;1.20;;;26.20;62.10;;;;;;5110834;28;20464;-81
2022/05/22 01:45:29;;;;;;;1.10;1.00;;;26.20;62.10;;;;;;5110620;28;20495;-88
2022/05/22 01:47:56;;;;;;;1.27;1.17;;;26.20;62.10;;;;;;5115561;28;20412;-80
2022/05/22 01:50:23;;;;;;;1.30;1.17;;;26.20;62.10;;;;;;5127371;28;20443;-80
2022/05/22 01:52:50;;;;;;;1.30;1.10;;;26.20;62.10;;;;;;5130152;28;20495;-81
2022/05/22 01:55:17;;;;;;;1.50;1.00;;;26.20;62.10;;;;;;5123630;28;20514;-91
2022/05/22 01:57:45;;;;;;;1.20;1.10;;;26.20;62.10;;;;;;5097038;28;20450;-90
2022/05/22 02:00:15;;;;;;;1.13;1.00;;;26.20;62.10;;;;;;5097203;28;20451;-92
2022/05/22 02:02:42;;;;;;;1.07;0.97;;;26.20;62.10;;;;;;5097157;28;20436;-92
2022/05/22 02:05:09;;;;;;;1.30;1.00;;;26.20;62.10;;;;;;5096728;28;20471;-86
2022/05/22 02:10:22;;;;;;;1.13;1.03;;;26.20;62.10;;;;;;5096525;28;20447;-80
2022/05/22 02:12:51;;;;;;;1.70;1.00;;;26.20;62.10;;;;;;5096264;28;20451;-81
2022/05/22 02:15:19;;;;;;;1.30;1.20;;;26.20;62.10;;;;;;5096885;28;20448;-84
2022/05/22 02:17:46;;;;;;;1.20;1.10;;;26.20;62.00;;;;;;5096557;28;20451;-92
2022/05/22 02:20:13;;;;;;;1.23;1.13;;;26.20;62.10;;;;;;5096658;28;20463;-92
2022/05/22 02:22:41;;;;;;;1.33;1.10;;;26.20;62.10;;;;;;5096397;28;20432;-93
2022/05/22 02:25:09;;;;;;;1.20;1.10;;;26.20;62.00;;;;;;5096476;28;20483;-92
2022/05/22 02:27:36;;;;;;;1.60;1.00;;;26.20;62.00;;;;;;5096482;28;20436;-91
2022/05/22 02:30:05;;;;;;;1.10;1.00;;;26.20;62.00;;;;;;5096514;28;20432;-92
2022/05/22 02:32:32;;;;;;;1.10;1.00;;;26.20;62.00;;;;;;5096319;28;20438;-93
2022/05/22 02:34:59;;;;;;;1.10;1.00;;;26.20;62.00;;;;;;5096336;28;20443;-92
2022/05/22 02:37:26;;;;;;;1.10;1.00;;;26.20;62.10;;;;;;5096104;28;20427;-93
2022/05/22 02:39:54;;;;;;;1.20;1.10;;;26.20;62.00;;;;;;5096311;28;20428;-91
2022/05/22 02:42:21;;;;;;;1.20;1.10;;;26.20;62.00;;;;;;5096365;28;20440;-93
2022/05/22 02:44:47;;;;;;;1.00;0.90;;;26.20;62.00;;;;;;5095893;28;20479;-92
2022/05/22 02:47:16;;;;;;;1.30;1.10;;;26.20;62.00;;;;;;5096058;28;20451;-84
2022/05/22 02:49:42;;;;;;;1.20;1.10;;;26.20;61.90;;;;;;5096258;28;20439;-92
2022/05/22 02:52:09;;;;;;;1.20;1.10;;;26.20;61.90;;;;;;5096166;28;20436;-93
2022/05/22 02:54:36;;;;;;;1.30;1.20;;;26.20;62.00;;;;;;5095776;28;20537;-92
2022/05/22 02:57:04;;;;;;;1.10;0.97;;;26.20;62.00;;;;;;5096114;28;20436;-93
2022/05/22 02:59:33;;;;;;;1.20;1.00;;;26.20;62.00;;;;;;5095855;28;20428;-91
2022/05/22 03:02:00;;;;;;;1.10;1.00;;;26.20;61.90;;;;;;5098512;28;20436;-82
2022/05/22 03:04:28;;;;;;;1.20;1.00;;;26.10;61.90;;;;;;5097060;28;20443;-93
2022/05/22 03:06:56;;;;;;;1.47;1.37;;;26.10;61.90;;;;;;5095850;28;20432;-81
2022/05/22 03:09:23;;;;;;;1.43;1.07;;;26.10;61.90;;;;;;5095269;28;20860;-93
2022/05/22 03:11:49;;;;;;;1.00;0.90;;;26.10;61.90;;;;;;5095468;28;20989;-92
2022/05/22 03:14:16;;;;;;;1.60;1.30;;;26.20;61.90;;;;;;5095374;28;20446;-84
2022/05/22 03:16:43;;;;;;;1.20;1.00;;;26.10;61.90;;;;;;5095832;28;20444;-92
2022/05/22 03:19:10;;;;;;;1.20;0.90;;;26.10;61.90;;;;;;5095440;28;20462;-91
2022/05/22 03:21:38;;;;;;;1.40;1.00;;;26.10;61.90;;;;;;5094259;28;20548;-91
2022/05/22 03:24:06;;;;;;;2.07;0.90;;;26.10;61.90;;;;;;5095428;28;20506;-81
2022/05/22 03:26:33;;;;;;;1.30;1.20;;;26.10;61.90;;;;;;5095259;28;20482;-92
2022/05/22 03:29:00;;;;;;;1.40;1.17;;;26.10;61.90;;;;;;5094321;28;20440;-93
2022/05/22 03:31:27;;;;;;;1.50;1.10;;;26.10;62.70;;;;;;5095247;28;20443;-81
2022/05/22 03:33:53;;;;;;;1.20;1.00;;;26.10;61.90;;;;;;5095545;28;20432;-92
2022/05/22 03:36:20;;;;;;;1.30;1.20;;;26.10;61.90;;;;;;5095358;28;20802;-93
2022/05/22 03:38:48;;;;;;;1.20;1.10;;;26.10;61.90;;;;;;5095351;28;20806;-81
2022/05/22 03:41:15;;;;;;;1.03;0.93;;;26.10;61.90;;;;;;5094796;28;20456;-82
2022/05/22 03:43:42;;;;;;;1.10;0.90;;;26.10;61.90;;;;;;5094816;28;20443;-81
2022/05/22 03:46:09;;;;;;;1.30;1.00;;;26.10;61.90;;;;;;5094695;28;20496;-81
2022/05/22 03:48:36;;;;;;;1.20;1.10;;;26.10;61.90;;;;;;5094759;28;20440;-81
2022/05/22 03:51:02;;;;;;;1.10;0.93;;;26.10;61.90;;;;;;5094943;28;20434;-92
2022/05/22 03:53:29;;;;;;;1.13;1.03;;;26.10;61.90;;;;;;5094789;28;20458;-92
2022/05/22 03:55:57;;;;;;;1.30;1.20;;;26.10;61.80;;;;;;5094766;28;20442;-91
2022/05/22 03:58:24;;;;;;;1.20;1.10;;;26.10;61.80;;;;;;5094859;28;20436;-92
2022/05/22 04:00:51;;;;;;;1.27;1.17;;;26.10;61.80;;;;;;5094819;28;20431;-91
2022/05/22 04:03:18;;;;;;;1.57;1.13;;;26.10;61.80;;;;;;5094956;28;20431;-91
2022/05/22 04:05:44;;;;;;;1.27;1.10;;;26.10;61.80;;;;;;5094553;28;20491;-93
2022/05/22 04:08:11;;;;;;;1.53;1.43;;;26.10;61.80;;;;;;5094609;28;20447;-92
2022/05/22 04:10:38;;;;;;;1.30;1.20;;;26.10;61.80;;;;;;5094657;28;20869;-93
2022/05/22 04:13:06;;;;;;;1.20;1.03;;;26.10;61.80;;;;;;5094751;28;20440;-88
2022/05/22 04:15:33;;;;;;;1.10;1.00;;;26.10;61.80;;;;;;5094634;28;20443;-93
2022/05/22 04:18:00;;;;;;;1.10;1.00;;;26.10;61.80;;;;;;5094464;28;20443;-93
2022/05/22 04:20:27;;;;;;;1.50;1.17;;;26.10;61.80;;;;;;5094568;28;20436;-93
2022/05/22 04:25:38;;;;;;;1.10;1.00;;;26.10;61.80;;;;;;5094659;28;20545;-84
2022/05/22 04:28:06;;;;;;;1.10;0.90;;;26.10;61.90;;;;;;5103514;28;20829;-80
2022/05/22 04:30:33;;;;;;;2.10;1.27;;;26.10;61.80;;;;;;5109404;28;20514;-81
2022/05/22 04:33:01;;;;;;;1.40;1.10;;;26.10;61.90;;;;;;5099569;28;20440;-93
2022/05/22 04:35:28;;;;;;;1.10;1.00;;;26.10;61.80;;;;;;5094066;28;20447;-83
2022/05/22 04:37:59;;;;;;;1.30;1.20;;;26.10;61.80;;;;;;5094410;28;20446;-89
2022/05/22 04:40:26;;;;;;;1.23;1.10;;;26.10;61.80;;;;;;5094096;28;20456;-81
2022/05/22 04:42:53;;;;;;;1.30;1.17;;;26.10;61.80;;;;;;5094289;28;20450;-94
2022/05/22 04:45:21;;;;;;;1.27;1.17;;;26.00;61.70;;;;;;5093997;28;21010;-91
2022/05/22 04:47:49;;;;;;;1.33;1.17;;;26.10;61.80;;;;;;5093869;28;20444;-93
2022/05/22 04:50:17;;;;;;;1.17;1.07;;;26.00;61.70;;;;;;5093785;28;20514;-82
2022/05/22 04:52:44;;;;;;;1.20;1.00;;;26.10;61.80;;;;;;5094193;28;20432;-92
2022/05/22 04:55:11;;;;;;;1.37;1.00;;;26.00;61.70;;;;;;5094170;28;20443;-85
2022/05/22 04:57:38;;;;;;;1.20;1.00;;;26.20;61.90;;;;;;5094143;28;20436;-83
2022/05/22 05:00:07;;;;;;;1.20;1.10;;;26.10;62.70;;;;;;5094095;28;20442;-83
2022/05/22 05:02:36;;;;;;;1.10;1.00;;;26.10;61.80;;;;;;5093892;28;20451;-90
2022/05/22 05:05:05;;;;;;;1.30;1.00;;;26.10;61.80;;;;;;5093994;28;20452;-87
2022/05/22 05:07:32;;;;;;;1.00;0.90;;;26.10;61.80;;;;;;5093704;28;20446;-82
2022/05/22 05:09:59;;;;;;;1.10;1.00;;;26.00;61.80;;;;;;5093424;28;20918;-81
2022/05/22 05:12:26;;;;;;;1.20;1.10;;;26.10;61.80;;;;;;5093450;28;20447;-82
2022/05/22 05:14:52;;;;;;;1.07;0.97;;;26.10;61.80;;;;;;5093400;28;20436;-81
2022/05/22 05:17:20;;;;;;;1.20;1.00;;;26.10;61.80;;;;;;5093839;28;20439;-93
2022/05/22 05:19:48;;;;;;;1.33;1.13;;;26.10;61.70;;;;;;5094240;28;20432;-82
2022/05/22 05:22:16;;;;;;;1.37;1.27;;;26.10;61.80;;;;;;5094109;28;20791;-92
2022/05/22 05:24:43;;;;;;;1.00;0.90;;;26.10;61.70;;;;;;5094162;28;20447;-93
2022/05/22 05:27:09;;;;;;;1.10;0.90;;;26.10;61.80;;;;;;5094123;28;20479;-91
2022/05/22 05:29:36;;;;;;;1.90;1.10;;;26.10;61.70;;;;;;5094584;28;20444;-93
2022/05/22 05:32:03;;;;;;;1.23;1.00;;;26.10;61.70;;;;;;5096563;28;20436;-93
2022/05/22 05:34:30;;;;;;;1.10;1.00;;;26.10;61.80;;;;;;5098743;28;20444;-93
2022/05/22 05:36:59;;;;;;;1.00;0.90;;;26.10;61.80;;;;;;5099248;28;20447;-92
2022/05/22 05:39:27;;;;;;;1.10;0.90;;;26.10;61.70;;;;;;5097949;28;20534;-84
2022/05/22 05:41:55;;;;;;;1.00;0.90;;;26.10;61.80;;;;;;5097773;28;20455;-92
2022/05/22 05:44:23;;;;;;;1.10;1.00;;;26.10;61.80;;;;;;5097361;28;21024;-94
2022/05/22 05:46:50;;;;;;;1.30;1.13;;;26.10;61.70;;;;;;5097400;28;20490;-94
2022/05/22 05:49:17;;;;;;;1.00;0.90;;;26.10;61.80;;;;;;5097265;28;20440;-82
2022/05/22 05:51:44;;;;;;;1.00;0.90;;;26.10;61.80;;;;;;5097194;28;20931;-93
2022/05/22 05:54:12;;;;;;;1.10;0.97;;;26.10;61.70;;;;;;5096829;28;20958;-93
2022/05/22 05:56:40;;;;;;;1.83;1.00;;;26.10;61.70;;;;;;5101303;28;20496;-93
2022/05/22 05:59:06;;;;;;;1.00;0.90;;;26.10;61.70;;;;;;5097509;28;20431;-82
2022/05/22 06:01:34;;;;;;;1.10;0.93;;;26.10;61.80;;;;;;5097175;28;20439;-87
2022/05/22 06:04:02;;;;;;;1.10;1.00;;;26.10;61.70;;;;;;5097198;28;20533;-82
2022/05/22 06:06:29;;;;;;;1.10;0.90;;;26.10;61.80;;;;;;5096891;28;20835;-93
2022/05/22 06:08:56;;;;;;;1.20;1.00;;;26.10;61.80;;;;;;5097491;28;20446;-83
2022/05/22 06:11:24;;;;;;;1.00;0.90;;;26.10;61.70;;;;;;5096897;28;20445;-94
2022/05/22 06:13:51;;;;;;;1.20;1.00;;;26.10;61.70;;;;;;5097548;28;20436;-93
2022/05/22 06:16:18;;;;;;;1.10;1.00;;;26.10;61.70;;;;;;5097535;28;20497;-88
2022/05/22 06:18:45;;;;;;;1.20;1.07;;;26.10;61.70;;;;;;5097983;28;20954;-93
2022/05/22 06:21:15;;;;;;;1.20;1.00;;;26.10;61.70;;;;;;5096876;28;20967;-88
2022/05/22 06:23:42;;;;;;;1.30;1.10;;;26.10;61.70;;;;;;5097079;28;20443;-93
2022/05/22 06:26:09;;;;;;;1.10;1.00;;;26.10;61.80;;;;;;5096526;28;20900;-92
2022/05/22 06:28:37;;;;;;;1.20;0.90;;;26.10;61.70;;;;;;5097430;28;20919;-94
2022/05/22 06:31:05;;;;;;;1.10;0.90;;;26.10;61.70;;;;;;5096735;28;20870;-92
2022/05/22 06:33:32;;;;;;;1.23;1.10;;;26.10;61.80;;;;;;5096905;28;20436;-92
2022/05/22 06:35:59;;;;;;;1.20;1.10;;;26.10;61.80;;;;;;5097134;28;20440;-93
2022/05/22 06:41:13;;;;;;;1.10;0.87;;;26.10;61.70;;;;;;5097128;28;20996;-92
2022/05/22 06:43:41;;;;;;;1.23;1.13;;;26.10;61.80;;;;;;5097140;28;20468;-92
2022/05/22 06:46:08;;;;;;;1.13;1.03;;;26.10;61.70;;;;;;5097149;28;20502;-92
2022/05/22 06:48:35;;;;;;;0.90;0.70;;;26.10;61.70;;;;;;5096132;28;20467;-82
2022/05/22 06:51:01;;;;;;;1.00;0.80;;;26.10;61.70;;;;;;5096081;28;20840;-91
2022/05/22 06:53:28;;;;;;;1.00;0.80;;;26.10;61.70;;;;;;5096574;28;20436;-81
2022/05/22 06:55:55;;;;;;;1.10;0.90;;;26.20;61.70;;;;;;5095877;28;20444;-89
2022/05/22 06:58:22;;;;;;;1.67;1.20;;;26.10;61.60;;;;;;5095988;28;20431;-93
2022/05/22 07:00:53;;;;;;;1.10;0.90;;;26.20;61.70;;;;;;5096165;28;20953;-81
2022/05/22 07:03:20;;;;;;;1.73;1.00;;;26.20;61.70;;;;;;5095973;28;20982;-93
2022/05/22 07:05:47;;;;;;;1.33;1.23;;;26.20;61.70;;;;;;5095593;28;20446;-92
2022/05/22 07:08:14;;;;;;;1.30;1.00;;;26.20;61.60;;;;;;5096745;28;20452;-91
2022/05/22 07:13:25;;;;;;;1.00;0.83;;;26.20;61.60;;;;;;5096199;28;20925;-82
2022/05/22 07:15:59;;;;;;;1.10;1.00;;;26.20;61.60;;;;;;5095570;28;20935;-91
2022/05/22 07:18:26;;;;;;;1.00;0.90;;;26.20;61.60;;;;;;5095819;28;20447;-93
2022/05/22 07:20:53;;;;;;;1.00;0.90;;;26.20;61.60;;;;;;5110178;28;20431;-90
2022/05/22 07:23:20;;;;;;;1.20;0.90;;;26.20;61.60;;;;;;5115795;28;20415;-82
2022/05/22 07:25:47;;;;;;;1.10;0.90;;;26.20;61.60;;;;;;5102198;28;20531;-82
2022/05/22 07:28:13;;;;;;;1.10;0.90;;;26.20;61.60;;;;;;5096633;28;20440;-94
2022/05/22 07:30:40;;;;;;;1.77;1.20;;;26.20;61.60;;;;;;5095647;28;20863;-93
2022/05/22 07:33:08;;;;;;;1.43;1.07;;;26.20;61.60;;;;;;5095613;28;20436;-94
2022/05/22 07:35:35;;;;;;;1.37;0.90;;;26.20;61.60;;;;;;5095224;28;20451;-92
2022/05/22 07:38:02;;;;;;;1.20;1.10;;;26.20;61.60;;;;;;5095676;28;20442;-94
2022/05/22 07:40:29;;;;;;;1.30;1.10;;;26.30;61.60;;;;;;5095138;28;20850;-94
2022/05/22 07:42:56;;;;;;;1.10;0.90;;;26.30;61.60;;;;;;5095448;28;20443;-93
2022/05/22 07:45:24;;;;;;;1.20;1.00;;;26.30;61.60;;;;;;5095196;28;20476;-86
2022/05/22 07:47:52;;;;;;;1.37;1.13;;;26.30;61.60;;;;;;5095418;28;20486;-94
2022/05/22 07:50:21;;;;;;;1.30;1.17;;;26.30;61.60;;;;;;5095172;28;20439;-90
2022/05/22 07:52:49;;;;;;;1.10;0.90;;;26.30;61.50;;;;;;5095134;28;20801;-93
2022/05/22 07:55:18;;;;;;;1.10;0.90;;;26.30;61.50;;;;;;5094527;28;20443;-93
2022/05/22 07:57:47;;;;;;;1.40;1.00;;;26.30;61.50;;;;;;5095255;28;20458;-90
2022/05/22 08:00:16;;;;;;;1.50;1.10;;;26.30;61.50;;;;;;5094736;28;20531;-81
2022/05/22 08:02:43;;;;;;;1.20;1.10;;;26.40;61.50;;;;;;5095370;28;20436;-92
2022/05/22 08:05:11;;;;;;;1.00;0.90;;;26.40;61.60;;;;;;5094850;28;20802;-92
2022/05/22 08:07:39;;;;;;;1.10;0.90;;;26.40;61.50;;;;;;5094954;28;20491;-93
2022/05/22 08:10:08;;;;;;;1.40;1.10;;;26.40;61.50;;;;;;5094669;28;20982;-82
2022/05/22 08:12:36;;;;;;;1.10;1.00;;;26.40;61.50;;;;;;5095327;28;21042;-88
2022/05/22 08:15:04;;;;;;;1.30;1.20;;;26.50;61.50;;;;;;5095583;28;20444;-93
2022/05/22 08:17:36;;;;;;;1.30;1.00;;;26.50;61.50;;;;;;5095868;28;20458;-94
2022/05/22 08:20:03;;;;;;;1.30;1.00;;;26.50;61.60;;;;;;5102134;28;20441;-81
2022/05/22 08:22:30;;;;;;;1.10;0.80;;;26.50;61.50;;;;;;5113858;28;20415;-85
2022/05/22 08:24:58;;;;;;;1.50;1.10;;;26.50;61.50;;;;;;5113553;28;20491;-82
2022/05/22 08:27:27;;;;;;;1.03;0.87;;;26.50;61.50;;;;;;5107826;28;20472;-92
2022/05/22 08:29:54;;;;;;;1.70;1.10;;;26.50;61.50;;;;;;5095366;28;20440;-81
2022/05/22 08:32:22;;;;;;;1.90;1.10;;;26.50;61.50;;;;;;5095535;28;20446;-91
2022/05/22 08:34:48;;;;;;;1.00;0.87;;;26.50;61.50;;;;;;5095308;28;20479;-90
2022/05/22 08:37:16;;;;;;;1.00;0.87;;;26.50;61.50;;;;;;5095390;28;20450;-81
2022/05/22 08:39:43;;;;;;;1.30;0.93;;;26.50;61.50;;;;;;5095010;28;20954;-94
2022/05/22 08:42:17;;;;;;;1.03;0.80;;;26.60;61.60;;;;;;5095184;28;20456;-94
2022/05/22 08:44:45;;;;;;;1.30;1.10;;;26.60;61.50;;;;;;5095920;28;20476;-93
2022/05/22 08:47:19;;;;;;;1.10;0.90;;;26.60;61.50;;;;;;5103725;28;20489;-94
2022/05/22 08:49:50;;;;;;;1.10;0.90;;;26.60;61.60;;;;;;5099478;28;20526;-93
2022/05/22 08:52:29;;;;;;;1.20;1.10;;;26.60;61.50;;;;;;5094705;28;20432;-94
2022/05/22 08:55:01;;;;;;;1.33;0.90;;;26.70;61.60;;;;;;5094628;28;20434;-93
2022/05/22 09:00:19;;;;;;;1.00;0.83;;;26.70;61.60;;;;;;5095025;28;20527;-94
2022/05/22 09:02:49;;;;;;;1.00;0.73;;;26.70;61.70;;;;;;5094734;28;20789;-93
2022/05/22 09:05:20;;;;;;;1.17;1.03;;;26.70;61.70;;;;;;5094604;28;20463;-95
2022/05/22 09:07:56;;;;;;;1.30;1.00;;;26.70;61.70;;;;;;5098570;28;20487;-82
2022/05/22 09:10:34;;;;;;;1.10;0.90;;;26.70;61.60;;;;;;5098148;28;20485;-91
2022/05/22 09:13:20;;;;;;;1.27;0.80;;;26.80;61.70;;;;;;5098554;28;20436;-87
2022/05/22 09:15:49;;;;;;;1.07;0.90;;;26.80;61.60;;;;;;5098033;28;20957;-81
2022/05/22 09:18:25;;;;;;;1.63;0.90;;;26.80;61.70;;;;;;5097973;28;21029;-81
2022/05/22 09:20:56;;;;;;;1.10;1.00;;;26.80;61.60;;;;;;5098823;28;20435;-93
2022/05/22 09:23:56;;;;;;;1.60;0.90;;;26.80;61.60;;;;;;5098367;28;20547;-81
2022/05/22 09:26:39;;;;;;;1.27;1.03;;;26.90;61.60;;;;;;5094913;28;20467;-93
2022/05/22 09:29:19;;;;;;;1.60;1.10;;;26.90;61.70;;;;;;5098662;28;20935;-81
2022/05/22 09:31:57;;;;;;;1.20;0.90;;;26.90;61.70;;;;;;5098799;28;20813;-93
2022/05/22 09:34:33;;;;;;;1.20;0.80;;;26.90;61.70;;;;;;5098946;28;20440;-95
2022/05/22 09:37:15;;;;;;;1.37;1.20;;;26.90;61.70;;;;;;5098656;28;20773;-81
2022/05/22 09:39:57;;;;;;;1.30;0.90;;;26.90;61.70;;;;;;5097913;28;20839;-81
2022/05/22 09:42:39;;;;;;;1.20;0.90;;;27.00;61.80;;;;;;5098155;28;20428;-86
2022/05/22 09:45:26;;;;;;;1.10;1.00;;;27.00;61.70;;;;;;5098425;28;20994;-93
2022/05/22 09:48:14;;;;;;;1.10;0.93;;;27.00;61.60;;;;;;5099235;28;20488;-94
2022/05/22 09:50:51;;;;;;;1.20;1.00;;;27.10;61.70;;;;;;5099159;28;20440;-95
2022/05/22 09:53:27;;;;;;;1.10;0.80;;;27.20;61.80;;;;;;5098980;28;20443;-95
2022/05/22 09:56:00;;;;;;;1.67;1.00;;;27.00;61.60;;;;;;5099159;28;20493;-82
2022/05/22 09:58:51;;;;;;;1.10;0.90;;;27.10;61.60;;;;;;5098536;28;20521;-82
2022/05/22 10:01:35;;;;;;;1.37;0.90;;;27.10;61.60;;;;;;5098618;28;20494;-95
2022/05/22 10:04:17;;;;;;;1.37;0.87;;;27.20;61.60;;;;;;5099071;28;20432;-96
2022/05/22 10:06:57;;;;;;;1.10;0.73;;;27.20;61.60;;;;;;5097891;28;20444;-94
2022/05/22 10:09:33;;;;;;;1.40;1.10;;;27.20;61.50;;;;;;5106010;28;20423;-81
2022/05/22 10:12:13;;;;;;;1.10;0.90;;;27.20;61.40;;;;;;5110092;28;20458;-82
2022/05/22 10:14:50;;;;;;;1.00;0.80;;;27.20;61.50;;;;;;5099333;28;20436;-92
2022/05/22 10:17:30;;;;;;;1.13;0.73;;;27.20;61.50;;;;;;5097863;28;20436;-93
2022/05/22 10:20:03;;;;;;;1.00;0.90;;;27.20;61.40;;;;;;5098070;28;20438;-82
2022/05/22 10:22:44;;;;;;;1.33;1.10;;;27.30;61.40;;;;;;5098504;28;20463;-81
2022/05/22 10:25:28;;;;;;;1.33;0.80;;;27.30;61.40;;;;;;5098975;28;20781;-94
2022/05/22 10:27:59;;;;;;;1.13;1.03;;;27.30;61.30;;;;;;5098535;28;20585;-95
2022/05/22 10:30:31;;;;;;;1.30;1.00;;;27.30;61.50;;;;;;5095009;28;20432;-81
2022/05/22 10:33:04;;;;;;;1.30;0.90;;;27.30;61.50;;;;;;5097012;28;20539;-81
2022/05/22 10:35:39;;;;;;;1.10;0.97;;;27.40;61.50;;;;;;5096820;28;20448;-91
2022/05/22 10:38:12;;;;;;;1.00;0.80;;;27.40;61.30;;;;;;5098684;28;20497;-91
2022/05/22 10:43:37;;;;;;;1.10;1.00;;;27.50;61.40;;;;;;5059839;28;20833;-95
2022/05/22 10:46:04;;;;;;;1.20;0.97;;;27.50;61.40;;;;;;5098057;28;20494;-95
2022/05/22 10:48:35;;;;;;;1.50;0.90;;;27.50;61.40;;;;;;5098896;28;20833;-86
2022/05/22 10:51:06;;;;;;;1.40;1.20;;;27.50;61.20;;;;;;5100247;28;20935;-96
2022/05/22 10:53:36;;;;;;;0.93;0.83;;;27.60;61.30;;;;;;5100100;28;20494;-93
2022/05/22 10:56:05;;;;;;;1.10;1.00;;;27.50;61.20;;;;;;5099286;28;20436;-95
2022/05/22 10:58:35;;;;;;;1.60;0.97;;;27.50;61.20;;;;;;5099194;28;20797;-94
2022/05/22 11:01:04;;;;;;;1.03;0.87;;;27.50;61.30;;;;;;5098297;28;20443;-95
2022/05/22 11:03:35;;;;;;;1.10;1.00;;;27.60;61.40;;;;;;5099214;28;20438;-90
2022/05/22 11:06:16;;;;;;;1.00;0.80;;;27.60;61.30;;;;;;5099535;28;20907;-87
2022/05/22 11:08:49;;;;;;;1.00;0.80;;;27.60;61.40;;;;;;5099880;28;20541;-84
2022/05/22 11:11:18;;;;;;;1.30;0.90;;;27.60;61.30;;;;;;5098551;28;20456;-96
2022/05/22 11:13:46;;;;;;;1.10;0.93;;;27.60;61.20;;;;;;5098075;28;20856;-83
2022/05/22 11:16:15;;;;;;;1.20;1.10;;;27.70;61.20;;;;;;5099858;28;20462;-95
2022/05/22 11:18:44;;;;;;;1.00;0.80;;;27.70;61.20;;;;;;5097930;28;20436;-92
2022/05/22 11:21:22;;;;;;;1.47;1.07;;;27.70;61.20;;;;;;5097766;28;20444;-82
2022/05/22 11:24:09;;;;;;;1.10;0.97;;;27.60;61.30;;;;;;5098820;28;20444;-88
2022/05/22 11:26:47;;;;;;;1.00;0.90;;;27.60;61.30;;;;;;5097483;28;20428;-94
2022/05/22 11:29:34;;;;;;;1.00;0.90;;;27.60;61.40;;;;;;5096790;28;20494;-93
2022/05/22 11:32:10;;;;;;;1.97;0.87;;;27.60;61.30;;;;;;5097640;28;20923;-94
2022/05/22 11:35:15;;;;;;;1.20;0.80;;;27.60;61.30;;;;;;5099032;28;20467;-82
2022/05/22 11:37:57;;;;;;;1.07;0.80;;;27.70;61.40;;;;;;5043074;28;20456;-94
2022/05/22 11:40:34;;;;;;;1.07;0.90;;;27.60;61.40;;;;;;5098078;28;20468;-91
2022/05/22 11:43:19;;;;;;;2.17;1.40;;;27.60;61.40;;;;;;5097528;28;20440;-94
2022/05/22 11:45:54;;;;;;;1.70;1.10;;;27.70;61.50;;;;;;5097006;28;20978;-93
2022/05/22 11:48:58;;;;;;;1.20;0.97;;;27.60;61.40;;;;;;5096228;28;20479;-81
2022/05/22 11:51:41;;;;;;;1.70;1.07;;;27.70;61.50;;;;;;5097243;28;20443;-94
2022/05/22 11:54:35;;;;;;;1.10;0.90;;;27.60;61.50;;;;;;5096458;28;20443;-94
2022/05/22 11:57:19;;;;;;;2.40;0.97;;;27.70;61.50;;;;;;5096704;28;20439;-93
2022/05/22 12:00:14;;;;;;;1.23;1.00;;;27.70;61.60;;;;;;5096543;28;20432;-89
2022/05/22 12:03:07;;;;;;;1.10;1.00;;;27.60;61.40;;;;;;5096832;28;20436;-94
2022/05/22 12:05:48;;;;;;;1.10;0.97;;;27.60;61.50;;;;;;5096413;28;20819;-92
2022/05/22 12:08:34;;;;;;;1.10;0.90;;;27.60;61.60;;;;;;5098329;28;20533;-93
2022/05/22 12:11:11;;;;;;;1.10;0.90;;;27.60;61.60;;;;;;5095606;28;20460;-89
2022/05/22 12:13:44;;;;;;;1.47;1.00;;;27.60;61.70;;;;;;5096872;28;20439;-95
2022/05/22 12:16:16;;;;;;;1.00;0.90;;;27.60;61.70;;;;;;5096683;28;20439;-95
2022/05/22 12:18:58;;;;;;;1.87;1.30;;;27.60;61.80;;;;;;5097361;28;20465;-82
2022/05/22 12:21:33;;;;;;;1.20;1.10;;;27.60;61.70;;;;;;5097429;28;20481;-95
2022/05/22 12:24:08;;;;;;;1.30;1.07;;;27.60;61.80;;;;;;5101513;28;20431;-81
2022/05/22 12:26:37;;;;;;;1.60;1.10;;;27.60;62.10;;;;;;5098860;28;20443;-94
2022/05/22 12:29:10;;;;;;;1.10;0.93;;;27.60;61.70;;;;;;5098619;28;20990;-94
2022/05/22 12:31:42;;;;;;;1.47;1.30;;;27.60;61.70;;;;;;5098310;28;20523;-82
2022/05/22 12:34:12;;;;;;;1.00;0.80;;;27.50;61.70;;;;;;5098379;28;20428;-81
2022/05/22 12:36:44;;;;;;;1.87;1.20;;;27.50;61.80;;;;;;5098895;28;20481;-95
2022/05/22 12:39:13;;;;;;;1.07;0.93;;;27.50;61.80;;;;;;5098967;28;20522;-94
2022/05/22 12:41:53;;;;;;;1.30;1.07;;;27.50;61.80;;;;;;5098606;28;20814;-93
2022/05/22 12:44:20;;;;;;;1.07;0.97;;;27.60;61.80;;;;;;5099263;28;20468;-94
2022/05/22 12:46:49;;;;;;;1.33;0.90;;;27.60;61.80;;;;;;5105691;28;20782;-83
2022/05/22 12:49:23;;;;;;;1.30;1.20;;;27.60;61.70;;;;;;5100777;28;20656;-82
2022/05/22 12:52:02;;;;;;;1.17;0.93;;;27.60;61.60;;;;;;5099341;28;20503;-95
2022/05/22 12:54:31;;;;;;;1.33;1.00;;;27.70;61.60;;;;;;5100722;28;20535;-93
2022/05/22 12:57:17;;;;;;;1.20;1.10;;;27.60;61.70;;;;;;5098778;28;20448;-82
2022/05/22 12:59:55;;;;;;;2.00;1.03;;;27.70;61.50;;;;;;5103023;28;20445;-82
2022/05/22 13:02:32;;;;;;;1.20;0.97;;;27.70;61.60;;;;;;5099781;28;20436;-95
2022/05/22 13:05:01;;;;;;;1.27;1.17;;;27.70;61.60;;;;;;5100199;28;20435;-95
2022/05/22 13:07:32;;;;;;;2.40;1.27;;;27.70;61.70;;;;;;5099723;28;20442;-94
2022/05/22 13:10:00;;;;;;;1.20;1.00;;;27.70;61.70;;;;;;5101169;28;20799;-96
2022/05/22 13:12:31;;;;;;;1.10;0.93;;;27.70;61.60;;;;;;5098817;28;20447;-94
2022/05/22 13:15:02;;;;;;;1.20;1.10;;;27.70;62.20;;;;;;5099707;28;20444;-95
2022/05/22 13:17:37;;;;;;;1.60;1.10;;;27.70;61.50;;;;;;5099588;28;20443;-82
2022/05/22 13:20:06;;;;;;;1.27;1.03;;;27.70;61.50;;;;;;5100101;28;20523;-95
2022/05/22 13:22:35;;;;;;;1.40;1.30;;;27.70;61.70;;;;;;5099564;28;20446;-95
2022/05/22 13:25:04;;;;;;;1.23;1.13;;;27.70;61.70;;;;;;5098515;28;20436;-95
2022/05/22 13:27:40;;;;;;;1.33;1.10;;;27.70;61.60;;;;;;5097531;28;20438;-95